Elmendorf, TX (78112)

4:59 PM CDT on May 06, 2015 (GMT -0500)
Texas coastal Plain haypatch | | Change Station
CLOSE
Current Station
Personal Weather Station
Location: Floresville, TX
Elevation: 499 ft
Nearby Weather Stations

Elev 499 ft 29.21 °N, 98.23 °W | Updated 45 seconds ago

Overcast
Overcast
84.2 °F
Feels Like 91 °F
N
7.0
Wind Variable Wind from SE
Gusts 15.0 mph

Today
High -- | Low -- °F
--% Chance of Precip.
Yesterday
High -- | Low -- °F
Precip. -- in
6:47 AM 8:12 PM
Waning Gibbous, 92% visible
Pressure 29.80 in
Visibility 7.0 miles
Clouds Few 4200 ft
Few 5500 ft
Mostly Cloudy 8500 ft
Heat Index 91 °F
Dew Point 73 °F
Humidity 70%
Rainfall 0.00 in
Snow Depth Not available.
UV 2.0 out of 12
Pollen 5.80 out of 12
Air Quality Not available.
Flu Activity Sporadic
METAR KSSF 062153Z 16010KT 7SM FEW042 FEW055 BKN085 29/21 A2984 RMK AO2 SLP091 T02940206

More Conditions Fewer Conditions

Pressure 29.80 in
Visibility 7.0 miles
Clouds Few 4200 ft
Few 5500 ft
Mostly Cloudy 8500 ft
Heat Index 91 °F
Dew Point 73 °F
Humidity 70%
Rainfall 0.00 in
Snow Depth Not available.
UV 2.0 out of 12
Pollen 5.80 out of 12
Air Quality Not available.
Flu Activity Sporadic
METAR KSSF 062153Z 16010KT 7SM FEW042 FEW055 BKN085 29/21 A2984 RMK AO2 SLP091 T02940206

More Conditions Fewer Conditions

Nowcast | as of 4:00 PM CDT on May 6, 2015

Through 6 PM CDT...isolated showers will move north at 20 mph across south central Texas and the eastern Hill Country. Rainfall amounts up to one tenth inch are possible.

×

10-Day Weather Forecast

Almanac

Astronomy

May. 06, 2015 Rise Set
Actual Time
Civil Twilight
Nautical Twilight
Astronomical Twilight
Moon
Length of Visible Light
Length of Day
Tomorrow will be .
, % of the Moon is Illuminated

Today's Extremes

State Highs State Lows

Community

WunderPhotos

Upload Photos

1,819,022 photos uploaded!

WunderBlogs® & News

Nearby

Air Quality

  Air Quality AQ Index Pollutant
Not available.

Snow Depth

Station Depth Elevation

Earthquake Activity

City Distance Mag. Time & Date
Minimum magnitude displayed is 2.5.

Coastal Water Temperatures

Place Temperature

Stations

Nearby Weather Stations

Station Location Temp. Windchill Dew Point Humidity Wind Precip. Elev Updated Type